Time;durP1;ratioP1;P1;durP2;ratioP2;P2;SDS_P1;SDS_P2;PMS_P1;PMS_P2;Temp;Humidity;BMP_temperature;BMP_pressure;BME280_temperature;BME280_humidity;BME280_pressure;Samples;Min_cycle;Max_cycle;Signal;HPM_P1;HPM_P2
2022/09/28 00:03:38;;;;;;;5.15;3.13;;;;;;;18.34;90.43;99513.75;4962025;28;20090;-84
2022/09/28 00:06:07;;;;;;;4.28;3.25;;;;;;;17.95;90.37;99440.88;4960975;28;20495;-83
2022/09/28 00:08:34;;;;;;;4.57;3.03;;;;;;;18.06;90.68;99453.09;4960811;29;20054;-83
2022/09/28 00:11:00;;;;;;;3.38;3.08;;;;;;;18.09;91.09;99474.44;4965575;28;20098;-84
2022/09/28 00:13:27;;;;;;;8.18;3.03;;;;;;;18.20;91.59;99484.75;4956306;28;20023;-87
2022/09/28 00:16:10;;;;;;;3.40;2.65;;;;;;;17.89;90.96;99419.91;4973781;28;20028;-82
2022/09/28 00:18:36;;;;;;;5.57;2.90;;;;;;;18.30;90.11;99494.25;4962638;28;20031;-84
2022/09/28 00:21:16;;;;;;;6.60;2.50;;;;;;;18.05;90.24;99471.28;4959586;28;20036;-82
2022/09/28 00:26:28;;;;;;;4.95;2.78;;;;;;;18.00;91.38;99460.19;4970214;28;20066;-86
2022/09/28 00:28:57;;;;;;;4.97;2.92;;;;;;;18.22;91.52;99524.38;4966966;28;20035;-84
2022/09/28 00:31:23;;;;;;;8.85;3.00;;;;;;;18.01;91.89;99489.03;4959837;28;20035;-85
2022/09/28 00:33:55;;;;;;;5.75;2.60;;;;;;;18.07;91.55;99499.13;4960580;28;20031;-84
2022/09/28 00:36:21;;;;;;;10.88;2.75;;;;;;;17.94;91.64;99482.75;4959538;28;20059;-83
2022/09/28 00:38:47;;;;;;;4.78;2.95;;;;;;;17.99;91.59;99502.00;4958535;28;20039;-82
2022/09/28 00:41:13;;;;;;;5.85;3.00;;;;;;;17.90;91.88;99465.13;4958550;28;20037;-82
2022/09/28 00:43:39;;;;;;;7.28;4.30;;;;;;;18.22;91.59;99524.38;4958596;28;20478;-84
2022/09/28 00:46:10;;;;;;;6.13;3.95;;;;;;;17.87;92.25;99470.97;4957184;28;20030;-82
2022/09/28 00:48:41;;;;;;;8.80;4.53;;;;;;;17.95;92.19;99495.28;4957991;28;20023;-84
2022/09/28 00:51:11;;;;;;;8.52;5.40;;;;;;;18.06;92.69;99513.78;4957395;28;20039;-83
2022/09/28 00:53:42;;;;;;;9.32;5.65;;;;;;;18.17;92.98;99524.09;4958250;28;20050;-83
2022/09/28 00:56:12;;;;;;;14.75;7.22;;;;;;;18.00;93.45;99492.81;4958955;28;20082;-83
2022/09/28 00:58:43;;;;;;;10.57;7.63;;;;;;;18.31;93.51;99547.66;4956308;28;20038;-83
2022/09/28 01:01:08;;;;;;;13.50;6.68;;;;;;;18.28;93.05;99545.34;4956140;28;20031;-83
2022/09/28 01:03:34;;;;;;;9.00;6.90;;;;;;;18.11;93.20;99526.78;4956047;28;20054;-82
2022/09/28 01:06:03;;;;;;;11.20;6.28;;;;;;;18.18;94.07;99544.00;4956210;28;20047;-81
2022/09/28 01:08:31;;;;;;;9.82;7.13;;;;;;;18.10;93.66;99534.13;4956094;28;20410;-82
2022/09/28 01:10:58;;;;;;;8.45;7.28;;;;;;;17.97;93.33;99527.75;4955534;28;20058;-82
2022/09/28 01:13:24;;;;;;;10.27;7.40;;;;;;;18.10;94.11;99547.75;4955429;28;20439;-80
2022/09/28 01:16:14;;;;;;;11.25;7.63;;;;;;;17.97;94.42;99525.03;4955461;28;20094;-83
2022/09/28 01:18:54;;;;;;;14.15;7.90;;;;;;;18.05;94.50;99547.47;4955215;28;20027;-80
2022/09/28 01:21:22;;;;;;;16.92;8.18;;;;;;;17.88;94.86;99521.63;4954987;28;20123;-81
2022/09/28 01:24:16;;;;;;;15.32;9.23;;;;;;;17.86;94.40;99519.09;4955453;28;20502;-82
2022/09/28 01:26:44;;;;;;;18.35;9.75;;;;;;;17.98;95.06;99541.13;4895421;29;20037;-82
2022/09/28 01:29:14;;;;;;;16.35;10.10;;;;;;;17.69;95.00;99506.00;4896098;29;20056;-79
2022/09/28 01:31:44;;;;;;;19.88;9.90;;;;;;;17.35;94.18;99455.94;4900862;29;20037;-78
2022/09/28 01:34:16;;;;;;;12.55;8.75;;;;;;;17.73;94.33;99529.03;4897383;29;20060;-79
2022/09/28 01:36:47;;;;;;;21.67;8.18;;;;;;;17.83;94.22;99540.41;4870056;29;20044;-79
2022/09/28 01:39:20;;;;;;;10.48;7.43;;;;;;;17.81;94.14;99526.16;4899369;29;20542;-78
2022/09/28 01:41:50;;;;;;;14.48;8.15;;;;;;;17.82;93.96;99533.31;4897703;29;20185;-78
2022/09/28 01:44:19;;;;;;;11.20;8.45;;;;;;;17.76;94.07;99526.78;4894131;29;20048;-79
2022/09/28 01:46:48;;;;;;;12.30;6.85;;;;;;;17.68;93.59;99512.47;4894629;29;20032;-78
2022/09/28 01:49:20;;;;;;;15.43;8.13;;;;;;;17.91;93.37;99543.00;4894681;29;20536;-77
2022/09/28 01:52:00;;;;;;;13.85;8.20;;;;;;;17.72;92.94;99505.59;4895622;29;20100;-79
2022/09/28 01:54:32;;;;;;;9.30;7.00;;;;;;;17.57;92.78;99485.81;4896044;29;20135;-82
2022/09/28 01:57:06;;;;;;;8.75;6.68;;;;;;;17.63;92.86;99502.19;4896753;29;20057;-78
2022/09/28 01:59:33;;;;;;;10.35;6.25;;;;;;;17.85;92.71;99535.63;4896744;29;20445;-80
2022/09/28 02:02:09;;;;;;;10.02;5.85;;;;;;;17.84;92.37;99537.50;4896805;29;20076;-78
2022/09/28 02:04:44;;;;;;;8.02;5.30;;;;;;;17.66;91.51;99509.94;4947903;28;20035;-79
2022/09/28 02:07:17;;;;;;;7.60;5.22;;;;;;;17.68;90.87;99507.03;4955685;28;20078;-77
2022/09/28 02:09:50;;;;;;;9.00;4.60;;;;;;;17.73;90.89;99518.16;4955795;28;20027;-79
2022/09/28 02:12:24;;;;;;;3.80;3.15;;;;;;;17.66;90.64;99500.94;4956272;28;20027;-79
2022/09/28 02:14:54;;;;;;;6.07;4.32;;;;;;;17.68;90.85;99513.31;4956079;28;20098;-78
2022/09/28 02:17:19;;;;;;;7.53;3.38;;;;;;;17.78;91.35;99527.41;4956265;28;20035;-79
2022/09/28 02:19:45;;;;;;;7.68;3.10;;;;;;;17.61;91.44;99481.69;4955499;28;20035;-78
2022/09/28 02:22:42;;;;;;;7.20;2.33;;;;;;;17.64;90.35;99478.56;4955978;28;20031;-79
2022/09/28 02:25:10;;;;;;;4.28;2.65;;;;;;;17.87;89.90;99522.66;4915223;29;20044;-79
2022/09/28 02:27:46;;;;;;;11.25;2.67;;;;;;;17.67;89.53;99487.16;4914799;29;20062;-78
2022/09/28 02:30:13;;;;;;;3.95;3.08;;;;;;;17.83;90.18;99513.19;4915432;29;20040;-80
2022/09/28 02:32:45;;;;;;;7.45;2.53;;;;;;;17.86;90.14;99520.97;4915412;29;20032;-80
2022/09/28 02:35:14;;;;;;;4.47;2.22;;;;;;;17.99;89.82;99534.66;4915773;29;20068;-80
2022/09/28 02:37:40;;;;;;;4.50;2.80;;;;;;;17.86;89.58;99504.63;4914193;29;20404;-82
2022/09/28 02:40:30;;;;;;;3.53;2.50;;;;;;;17.95;89.57;99517.03;4914629;29;20032;-80
2022/09/28 02:43:14;;;;;;;2.67;2.40;;;;;;;18.10;89.02;99536.84;4915375;29;20044;-78
2022/09/28 02:45:52;;;;;;;4.97;3.50;;;;;;;18.12;89.03;99537.47;4914782;29;20535;-80
2022/09/28 02:48:23;;;;;;;7.22;3.63;;;;;;;18.16;88.93;99536.06;4915898;29;20044;-79
2022/09/28 02:51:20;;;;;;;5.03;2.55;;;;;;;18.14;88.85;99542.72;4915881;29;20028;-78
2022/09/28 02:54:17;;;;;;;10.40;4.70;;;;;;;18.17;88.46;99545.88;4920749;29;20119;-78
2022/09/28 02:57:04;;;;;;;10.02;4.70;;;;;;;17.98;88.71;99510.41;4921897;29;20068;-82
2022/09/28 02:59:51;;;;;;;16.95;6.15;;;;;;;17.83;88.31;99502.31;4934166;29;20040;-81
2022/09/28 03:02:29;;;;;;;13.00;5.20;;;;;;;17.66;88.02;99473.75;4952859;28;20031;-81
2022/09/28 03:05:10;;;;;;;9.85;5.82;;;;;;;18.07;87.84;99548.09;4965519;28;20027;-85
2022/09/28 03:07:40;;;;;;;15.55;7.38;;;;;;;17.87;87.93;99520.78;4963157;28;20056;-83
2022/09/28 03:10:19;;;;;;;15.32;6.55;;;;;;;18.01;88.03;99532.56;4962183;28;20099;-83
2022/09/28 03:12:47;;;;;;;11.13;6.07;;;;;;;18.02;88.07;99550.59;4962851;28;20094;-83
2022/09/28 03:15:32;;;;;;;9.60;6.72;;;;;;;18.03;88.33;99548.72;4963225;28;20027;-84
2022/09/28 03:17:58;;;;;;;9.15;5.90;;;;;;;17.96;88.42;99543.22;4962176;28;20094;-83
2022/09/28 03:20:24;;;;;;;11.80;5.90;;;;;;;18.03;88.11;99552.28;4960291;28;20028;-83
2022/09/28 03:22:50;;;;;;;5.95;3.92;;;;;;;18.00;88.52;99541.78;4959936;28;20039;-85
2022/09/28 03:25:16;;;;;;;6.15;4.28;;;;;;;17.96;88.45;99548.66;4962440;28;20031;-82
2022/09/28 03:27:42;;;;;;;6.53;3.75;;;;;;;17.99;88.33;99556.44;4962446;28;20031;-80
2022/09/28 03:30:08;;;;;;;5.00;3.58;;;;;;;17.75;88.08;99518.78;4959269;28;20043;-80
2022/09/28 03:32:34;;;;;;;7.60;3.63;;;;;;;17.53;88.01;99492.66;4957562;28;20045;-80
2022/09/28 03:34:59;;;;;;;8.00;4.10;;;;;;;17.87;87.48;99547.13;4961474;28;20027;-81
2022/09/28 03:37:26;;;;;;;20.40;5.30;;;;;;;17.83;87.16;99543.97;4957994;28;20090;-80
2022/09/28 03:39:51;;;;;;;15.30;5.57;;;;;;;17.40;87.17;99480.63;4957996;28;20474;-80
2022/09/28 03:42:17;;;;;;;19.20;4.93;;;;;;;17.87;87.11;99552.56;4957948;28;20122;-81
2022/09/28 03:44:42;;;;;;;10.23;4.70;;;;;;;17.61;86.83;99503.44;4957941;28;20029;-80
2022/09/28 03:47:08;;;;;;;45.03;6.18;;;;;;;18.02;86.75;99566.91;4959724;28;20085;-81
2022/09/28 03:49:33;;;;;;;17.60;6.30;;;;;;;17.44;86.94;99475.66;4960739;28;20438;-85
2022/09/28 03:51:59;;;;;;;16.42;6.07;;;;;;;18.04;86.96;99567.53;4943050;28;20066;-80
2022/09/28 03:54:25;;;;;;;27.45;6.88;;;;;;;18.09;86.91;99572.41;4957885;28;20110;-80
2022/09/28 03:56:50;;;;;;;14.88;5.93;;;;;;;18.06;86.23;99562.78;4959174;28;20520;-78
2022/09/28 03:59:16;;;;;;;14.88;7.72;;;;;;;18.08;86.09;99557.97;4959004;28;20749;-86
2022/09/28 04:01:44;;;;;;;35.40;8.73;;;;;;;18.01;86.24;99539.91;4940530;29;20406;-79
2022/09/28 04:04:13;;;;;;;32.65;8.93;;;;;;;18.17;86.39;99569.53;4957758;28;20030;-81
2022/09/28 04:06:39;;;;;;;29.50;9.23;;;;;;;18.14;86.72;99567.19;4937765;29;20135;-79
2022/09/28 04:09:04;;;;;;;23.98;8.02;;;;;;;18.16;86.67;99565.16;4938091;29;20099;-81
2022/09/28 04:11:30;;;;;;;22.88;6.70;;;;;;;18.07;85.80;99548.09;4937041;29;20110;-77
2022/09/28 04:13:55;;;;;;;15.38;6.68;;;;;;;18.01;84.56;99538.00;4936920;29;20039;-83
2022/09/28 04:16:21;;;;;;;20.40;7.20;;;;;;;18.12;84.26;99559.25;4936478;29;20028;-82
2022/09/28 04:18:47;;;;;;;12.25;5.22;;;;;;;18.02;83.96;99539.72;4942704;29;20043;-82
2022/09/28 04:21:15;;;;;;;22.90;6.03;;;;;;;17.89;83.81;99518.69;4950336;29;20043;-84
2022/09/28 04:23:41;;;;;;;15.60;5.43;;;;;;;18.05;84.63;99550.19;4955261;29;20067;-83
2022/09/28 04:26:15;;;;;;;28.02;7.18;;;;;;;18.12;85.07;99559.25;4937374;29;20473;-85
2022/09/28 04:31:24;;;;;;;89.47;12.25;;;;;;;18.09;85.34;99567.81;4937578;29;20099;-80
2022/09/28 04:33:50;;;;;;;14.80;6.35;;;;;;;17.97;84.98;99542.19;4937160;29;20032;-84
2022/09/28 04:36:16;;;;;;;29.10;11.18;;;;;;;17.74;84.95;99514.38;4936646;29;20040;-80
2022/09/28 04:38:42;;;;;;;42.65;9.02;;;;;;;18.08;84.91;99563.41;4937478;29;20039;-80
2022/09/28 04:41:07;;;;;;;38.17;8.73;;;;;;;17.98;84.51;99554.75;4938508;29;20024;-81
2022/09/28 04:43:33;;;;;;;58.90;26.52;;;;;;;18.11;84.94;99586.66;4942154;29;20028;-81
2022/09/28 04:46:04;;;;;;;55.63;22.27;;;;;;;18.12;85.45;99594.63;4939948;29;20023;-82
2022/09/28 04:48:30;;;;;;;34.28;12.73;;;;;;;18.07;85.71;99585.38;4935911;29;20031;-80
2022/09/28 04:50:57;;;;;;;64.65;12.95;;;;;;;18.19;85.79;99592.81;4937110;29;20064;-81
2022/09/28 04:53:24;;;;;;;67.40;12.88;;;;;;;18.17;85.96;99592.16;4937453;29;20427;-80
2022/09/28 04:56:03;;;;;;;37.10;13.20;;;;;;;18.20;86.52;99597.19;4936119;29;20023;-81
2022/09/28 04:58:30;;;;;;;44.53;18.10;;;;;;;17.99;86.31;99561.88;4936518;29;20032;-78
2022/09/28 05:01:01;;;;;;;35.25;20.10;;;;;;;17.97;86.47;99574.84;4943167;29;20054;-82
2022/09/28 05:03:26;;;;;;;35.33;22.13;;;;;;;18.15;86.52;99617.88;4954994;29;20055;-82
2022/09/28 05:05:52;;;;;;;55.63;27.00;;;;;;;17.77;86.31;99549.34;4967748;29;20083;-83
2022/09/28 05:08:18;;;;;;;55.33;23.10;;;;;;;18.11;86.46;99608.41;4956367;28;20019;-81
2022/09/28 05:10:44;;;;;;;96.47;25.80;;;;;;;18.17;86.68;99613.91;4954887;28;20113;-80
2022/09/28 05:13:11;;;;;;;68.00;24.45;;;;;;;18.19;86.77;99617.31;4954691;28;20507;-81
2022/09/28 05:15:38;;;;;;;104.80;24.55;;;;;;;18.14;86.81;99608.03;4955468;28;20039;-84
2022/09/28 05:18:04;;;;;;;39.55;18.38;;;;;;;18.24;86.80;99624.84;4954232;28;20090;-81
2022/09/28 05:20:30;;;;;;;40.83;16.27;;;;;;;18.24;86.60;99620.25;4954089;28;20043;-81
2022/09/28 05:22:55;;;;;;;48.20;15.73;;;;;;;18.29;85.91;99622.38;4956584;28;20031;-81
2022/09/28 05:25:21;;;;;;;169.48;21.80;;;;;;;18.30;85.93;99616.75;4957593;28;20024;-82
2022/09/28 05:27:47;;;;;;;78.90;19.02;;;;;;;18.28;86.21;99624.28;4956386;28;20089;-80
2022/09/28 05:30:13;;;;;;;33.78;14.13;;;;;;;18.13;86.54;99609.94;4954261;28;20031;-79
2022/09/28 05:32:40;;;;;;;27.95;14.80;;;;;;;18.20;85.84;99634.44;4956250;28;20034;-80
2022/09/28 05:35:06;;;;;;;30.50;13.55;;;;;;;18.29;86.17;99639.53;4954882;28;20034;-81
2022/09/28 05:37:32;;;;;;;23.85;11.50;;;;;;;18.37;86.28;99644.84;4955312;28;20028;-83
2022/09/28 05:39:57;;;;;;;32.58;11.90;;;;;;;18.37;86.20;99647.56;4952864;28;20050;-82
2022/09/28 05:42:23;;;;;;;25.65;12.85;;;;;;;18.27;86.11;99640.78;4957982;28;20043;-84
2022/09/28 05:44:48;;;;;;;39.63;14.77;;;;;;;18.42;85.68;99661.44;4971762;28;20022;-82
2022/09/28 05:47:13;;;;;;;39.40;19.00;;;;;;;18.17;85.69;99611.19;4973840;28;20110;-83
2022/09/28 05:49:39;;;;;;;25.48;17.33;;;;;;;18.43;85.83;99657.69;4973022;28;20054;-81
2022/09/28 05:52:04;;;;;;;32.25;16.40;;;;;;;18.48;85.99;99660.63;4951887;28;20142;-80
2022/09/28 05:54:30;;;;;;;34.10;19.95;;;;;;;18.49;85.96;99650.63;4952490;28;20058;-82
2022/09/28 05:56:55;;;;;;;33.28;16.45;;;;;;;18.60;85.65;99657.38;4952283;28;20474;-77
2022/09/28 05:59:20;;;;;;;49.97;19.00;;;;;;;18.58;85.17;99648.56;4955383;28;20027;-77
2022/09/28 06:01:46;;;;;;;38.58;18.42;;;;;;;18.70;85.14;99655.16;4953051;28;20031;-78
2022/09/28 06:04:13;;;;;;;45.30;19.02;;;;;;;18.66;84.64;99646.53;4952215;28;20031;-78
2022/09/28 06:06:39;;;;;;;65.88;20.85;;;;;;;18.72;84.75;99659.34;4934075;28;20051;-81
2022/09/28 06:09:04;;;;;;;34.50;18.52;;;;;;;18.79;85.10;99652.06;4917501;28;20043;-79
2022/09/28 06:11:30;;;;;;;28.02;16.55;;;;;;;18.69;84.98;99637.09;4953265;28;20491;-78
2022/09/28 06:13:56;;;;;;;43.67;17.63;;;;;;;18.80;84.50;99663.81;4952524;28;20059;-77
2022/09/28 06:16:22;;;;;;;44.33;19.70;;;;;;;18.83;84.58;99652.50;4951316;28;20059;-78
2022/09/28 06:18:47;;;;;;;45.20;18.10;;;;;;;18.89;84.30;99660.72;4951257;28;20031;-76
2022/09/28 06:21:13;;;;;;;49.60;18.98;;;;;;;18.87;84.65;99653.75;4950918;28;20039;-76
2022/09/28 06:23:38;;;;;;;42.92;22.38;;;;;;;19.04;84.88;99671.47;4951019;28;20058;-77
2022/09/28 06:26:04;;;;;;;43.38;19.65;;;;;;;19.07;84.80;99659.31;4950322;28;20506;-79
2022/09/28 06:28:29;;;;;;;47.17;19.33;;;;;;;19.18;85.09;99670.47;4950722;28;20051;-76
2022/09/28 06:30:55;;;;;;;39.88;20.30;;;;;;;19.20;84.20;99659.38;4951804;28;20049;-77
2022/09/28 06:33:20;;;;;;;44.22;18.75;;;;;;;18.45;83.88;99538.50;4952067;28;20031;-81
2022/09/28 06:35:46;;;;;;;44.60;19.13;;;;;;;19.07;83.82;99630.19;4948209;28;20027;-79
2022/09/28 06:38:12;;;;;;;37.30;17.25;;;;;;;18.92;83.32;99596.78;4973872;28;20517;-81
2022/09/28 06:40:38;;;;;;;42.28;18.88;;;;;;;19.44;83.93;99665.16;4973987;28;20034;-82
2022/09/28 06:43:14;;;;;;;45.95;15.70;;;;;;;19.59;83.40;99669.59;4972904;28;20058;-78
2022/09/28 06:45:41;;;;;;;44.25;25.70;;;;;;;19.40;82.49;99617.53;4972309;28;20120;-79
2022/09/28 06:48:07;;;;;;;24.88;12.30;;;;;;;19.77;81.91;99661.66;4973494;28;20023;-83
2022/09/28 06:50:39;;;;;;;20.67;7.95;;;;;;;19.64;80.04;99632.47;4972341;28;20069;-79
2022/09/28 06:53:06;;;;;;;27.80;6.43;;;;;;;19.77;77.37;99654.31;4970971;28;20034;-80
2022/09/28 06:55:32;;;;;;;16.25;6.32;;;;;;;19.78;76.54;99641.53;4972149;28;20054;-83
2022/09/28 06:58:05;;;;;;;21.55;5.57;;;;;;;20.01;75.48;99666.50;4972436;28;20026;-78
2022/09/28 07:00:33;;;;;;;103.97;9.63;;;;;;;19.92;74.58;99649.50;4972216;28;20039;-81
2022/09/28 07:03:01;;;;;;;12.23;5.10;;;;;;;20.18;74.82;99670.53;4973876;28;20466;-85
2022/09/28 07:05:28;;;;;;;20.45;5.25;;;;;;;19.98;74.37;99628.72;4970884;28;20052;-79
2022/09/28 07:07:55;;;;;;;11.38;4.88;;;;;;;20.05;73.60;99643.22;4965819;28;20023;-82
2022/09/28 07:10:26;;;;;;;23.08;4.80;;;;;;;20.22;72.92;99663.59;4968020;28;20042;-81
2022/09/28 07:12:52;;;;;;;12.37;5.40;;;;;;;20.30;73.04;99666.16;4960607;28;20107;-81
2022/09/28 07:15:19;;;;;;;14.60;5.10;;;;;;;20.22;72.47;99647.19;4934017;28;20094;-79
2022/09/28 07:17:45;;;;;;;15.82;5.63;;;;;;;20.16;72.47;99637.13;4950801;28;20470;-79
2022/09/28 07:20:10;;;;;;;17.83;5.13;;;;;;;20.38;71.50;99660.47;4933880;28;20035;-78
2022/09/28 07:22:37;;;;;;;13.35;5.13;;;;;;;20.50;71.35;99666.97;4951324;28;20031;-78
2022/09/28 07:25:04;;;;;;;25.92;10.07;;;;;;;20.42;71.22;99639.88;4919061;28;20047;-79
2022/09/28 07:27:30;;;;;;;47.58;7.72;;;;;;;20.62;71.21;99665.25;4934404;29;20027;-79
2022/09/28 07:29:57;;;;;;;12.35;3.85;;;;;;;20.68;69.96;99666.28;4956793;28;20051;-80
2022/09/28 07:32:23;;;;;;;33.00;5.22;;;;;;;20.64;69.17;99646.75;4952355;28;20035;-82
2022/09/28 07:34:49;;;;;;;14.05;3.97;;;;;;;20.74;69.92;99642.72;4934735;28;20034;-78
2022/09/28 07:37:17;;;;;;;11.48;3.90;;;;;;;20.91;69.78;99654.91;4951299;28;20035;-78
2022/09/28 07:42:28;;;;;;;16.40;5.15;;;;;;;20.86;68.67;99646.47;4954380;28;20038;-79
2022/09/28 07:44:55;;;;;;;14.35;5.10;;;;;;;21.14;68.89;99663.47;4954045;28;20027;-81
2022/09/28 07:47:25;;;;;;;13.73;5.45;;;;;;;20.85;68.63;99614.75;4954195;28;20039;-81
2022/09/28 07:49:58;;;;;;;15.82;5.10;;;;;;;21.14;67.76;99672.50;4920205;28;20041;-78
2022/09/28 07:52:25;;;;;;;15.15;5.05;;;;;;;21.21;68.43;99656.06;4955520;28;20137;-85
2022/09/28 07:54:53;;;;;;;16.67;5.85;;;;;;;21.30;68.14;99656.66;4953640;28;20032;-86
2022/09/28 07:57:19;;;;;;;7.40;4.55;;;;;;;21.35;66.54;99657.69;4956424;28;20157;-84
2022/09/28 07:59:45;;;;;;;18.23;6.38;;;;;;;21.36;66.99;99648.44;4954450;28;20099;-78
2022/09/28 08:02:11;;;;;;;11.23;5.18;;;;;;;21.37;66.78;99649.28;4954449;28;20118;-79
2022/09/28 08:04:37;;;;;;;10.27;4.63;;;;;;;21.51;65.14;99654.44;4952951;28;20059;-78
2022/09/28 08:07:03;;;;;;;11.13;4.25;;;;;;;21.58;64.04;99647.06;4953050;28;20055;-78
2022/09/28 08:09:29;;;;;;;16.08;4.32;;;;;;;21.33;61.84;99593.31;4953714;28;20039;-82
2022/09/28 08:11:54;;;;;;;10.98;3.90;;;;;;;21.49;62.46;99615.53;4953641;28;20039;-77
2022/09/28 08:14:20;;;;;;;21.45;4.55;;;;;;;21.40;62.78;99583.19;4954830;28;20046;-83
2022/09/28 08:16:45;;;;;;;13.82;4.30;;;;;;;21.78;62.53;99624.16;4956036;28;20035;-81
2022/09/28 08:19:11;;;;;;;12.15;4.78;;;;;;;21.82;62.41;99625.41;4954778;28;20027;-80
2022/09/28 08:21:45;;;;;;;10.68;4.55;;;;;;;21.69;61.95;99597.06;4955353;28;20031;-80
2022/09/28 08:24:12;;;;;;;13.02;5.60;;;;;;;22.07;64.05;99631.78;4955291;28;20027;-80
2022/09/28 08:26:38;;;;;;;11.13;6.15;;;;;;;22.08;62.62;99619.75;4954277;28;20042;-80
2022/09/28 08:29:04;;;;;;;12.80;6.20;;;;;;;22.14;62.80;99624.34;4964243;28;20035;-80
2022/09/28 08:31:30;;;;;;;12.48;6.20;;;;;;;22.19;62.46;99614.41;4963943;28;20090;-80
2022/09/28 08:33:56;;;;;;;12.82;5.15;;;;;;;22.26;61.56;99611.59;4962452;28;20062;-80
2022/09/28 08:36:22;;;;;;;15.43;5.80;;;;;;;22.44;60.20;99641.78;4954670;28;20031;-81
2022/09/28 08:38:48;;;;;;;9.70;3.92;;;;;;;22.53;59.68;99640.44;4952949;28;20042;-83
2022/09/28 08:41:43;;;;;;;10.43;3.97;;;;;;;22.56;58.39;99653.69;4954069;28;20027;-79
2022/09/28 08:44:15;;;;;;;13.82;4.18;;;;;;;22.66;58.52;99650.44;4875121;29;20045;-77
2022/09/28 08:46:48;;;;;;;7.05;3.80;;;;;;;22.57;58.56;99630.66;4874639;29;20530;-82
2022/09/28 08:49:36;;;;;;;8.63;3.63;;;;;;;22.23;57.67;99568.22;4875459;29;20664;-84
2022/09/28 08:52:05;;;;;;;19.60;4.75;;;;;;;22.81;58.41;99648.19;4837544;29;20086;-82
2022/09/28 08:54:37;;;;;;;10.02;4.40;;;;;;;22.82;57.73;99649.84;4838824;29;20061;-83
2022/09/28 08:57:23;;;;;;;;;;;;;;;22.90;58.02;99652.31;4839818;29;20092;-81
2022/09/28 08:59:52;;;;;;;7.00;3.72;;;;;;;22.54;56.74;99578.22;4847249;29;19912;-82
2022/09/28 09:02:32;;;;;;;5.72;3.55;;;;;;;23.07;57.50;99638.78;4838362;29;20046;-84
2022/09/28 09:04:59;;;;;;;23.25;7.13;;;;;;;23.17;57.63;99639.09;4838275;29;20609;-80
2022/09/28 09:08:18;;;;;;;11.60;7.68;;;;;;;23.32;56.23;99628.56;4837632;29;20434;-82
2022/09/28 09:10:59;;;;;;;15.68;5.78;;;;;;;23.47;57.02;99641.91;4782711;30;20163;-79
2022/09/28 09:14:03;;;;;;;10.95;4.93;;;;;;;23.59;54.69;99635.38;4782627;30;20059;-83
2022/09/28 09:16:56;;;;;;;14.18;4.32;;;;;;;23.59;53.84;99629.91;4767344;30;20159;-81
2022/09/28 09:19:39;;;;;;;11.80;4.05;;;;;;;23.77;53.51;99649.06;4765527;29;20036;-82
2022/09/28 09:22:15;;;;;;;8.57;4.55;;;;;;;23.84;53.31;99648.97;4820767;29;20046;-79
2022/09/28 09:24:54;;;;;;;15.48;3.75;;;;;;;23.98;52.30;99649.56;4807843;29;20042;-86
2022/09/28 09:27:19;;;;;;;21.35;3.50;;;;;;;24.10;50.44;99636.69;4830490;29;20078;-88
2022/09/28 09:30:11;;;;;;;6.53;3.47;;;;;;;24.24;49.97;99639.06;4846134;29;20096;-89
2022/09/28 09:32:40;;;;;;;6.00;2.85;;;;;;;24.33;49.18;99645.03;4851094;29;20053;-86
2022/09/28 09:35:11;;;;;;;6.30;3.00;;;;;;;24.45;48.77;99634.88;4844148;29;20042;-87
2022/09/28 09:37:45;;;;;;;11.68;3.25;;;;;;;24.56;48.50;99641.44;4844160;29;20041;-87
2022/09/28 09:40:43;;;;;;;10.32;3.78;;;;;;;24.76;49.32;99648.25;4844921;29;20046;-89
2022/09/28 09:43:33;;;;;;;12.48;2.28;;;;;;;24.91;45.03;99634.03;4845520;29;20125;-87
2022/09/28 09:46:07;;;;;;;7.78;2.72;;;;;;;24.94;44.95;99640.97;4911150;29;20041;-86
2022/09/28 09:48:43;;;;;;;3.42;1.85;;;;;;;24.60;43.38;99573.91;4913070;29;20176;-87
2022/09/28 09:51:27;;;;;;;16.08;2.97;;;;;;;25.04;41.63;99632.94;4926235;29;20024;-87
2022/09/28 09:54:06;;;;;;;8.35;3.03;;;;;;;25.22;40.67;99643.78;4961819;28;20022;-83
2022/09/28 09:57:02;;;;;;;11.65;6.05;;;;;;;25.25;39.63;99637.78;4960384;29;20027;-85
2022/09/28 09:59:35;;;;;;;12.57;3.17;;;;;;;25.41;41.10;99639.78;4955702;28;20027;-86
2022/09/28 10:02:23;;;;;;;12.60;3.17;;;;;;;25.50;39.95;99637.50;4956734;28;20035;-86
2022/09/28 10:05:11;;;;;;;6.57;3.20;;;;;;;25.45;40.19;99618.91;4938868;29;20035;-87
2022/09/28 10:07:43;;;;;;;5.20;1.88;;;;;;;25.73;40.49;99643.72;4893578;29;20036;-87
2022/09/28 10:10:20;;;;;;;3.78;1.70;;;;;;;25.78;39.10;99635.53;4893730;29;20049;-87
2022/09/28 10:12:47;;;;;;;25.85;2.92;;;;;;;25.78;37.26;99630.03;4893236;29;20048;-88
2022/09/28 10:15:17;;;;;;;14.02;2.13;;;;;;;25.76;36.82;99621.19;4893195;29;20394;-87
2022/09/28 10:17:43;;;;;;;8.18;2.25;;;;;;;25.90;37.61;99650.09;4893177;29;20048;-87
2022/09/28 10:20:14;;;;;;;11.27;2.17;;;;;;;25.91;37.49;99628.88;4893085;29;20088;-87
2022/09/28 10:22:41;;;;;;;8.43;2.20;;;;;;;25.98;38.00;99622.16;4893098;29;20033;-86
2022/09/28 10:25:08;;;;;;;5.40;2.00;;;;;;;26.04;38.20;99616.72;4903735;29;20040;-89
2022/09/28 10:27:38;;;;;;;16.90;2.53;;;;;;;26.35;36.93;99643.72;4897886;29;20048;-88
2022/09/28 10:30:07;;;;;;;4.75;2.08;;;;;;;26.41;36.52;99628.94;4894646;29;20112;-85
2022/09/28 10:32:44;;;;;;;6.93;2.30;;;;;;;26.53;36.17;99637.94;4894364;29;20516;-90
2022/09/28 10:35:18;;;;;;;7.28;1.65;;;;;;;26.70;35.44;99638.75;4888948;28;20032;-90
2022/09/28 10:38:06;;;;;;;9.60;2.10;;;;;;;26.93;35.00;99635.81;4913752;28;20045;-84
2022/09/28 10:40:44;;;;;;;8.63;1.65;;;;;;;27.03;33.71;99611.09;4893606;29;20063;-86
2022/09/28 10:43:28;;;;;;;9.65;2.83;;;;;;;27.41;33.10;99617.63;4893444;29;20040;-86
2022/09/28 10:46:10;;;;;;;18.90;2.75;;;;;;;27.53;32.65;99615.59;4951391;28;20045;-85
2022/09/28 10:48:46;;;;;;;9.55;1.95;;;;;;;27.58;32.07;99576.97;4952405;28;20111;-88
2022/09/28 10:51:11;;;;;;;2.88;1.65;;;;;;;27.86;32.04;99607.06;4952100;28;20062;-85
2022/09/28 10:53:37;;;;;;;10.00;1.98;;;;;;;27.88;31.63;99585.56;4935025;28;20479;-86
2022/09/28 10:56:18;;;;;;;12.85;2.42;;;;;;;27.96;31.47;99609.09;4952101;28;20085;-85
2022/09/28 10:58:43;;;;;;;4.65;1.83;;;;;;;27.86;30.88;99612.59;4935230;29;20034;-84
2022/09/28 11:01:10;;;;;;;4.50;1.83;;;;;;;27.75;31.09;99591.50;4919329;28;20031;-85
2022/09/28 11:03:57;;;;;;;12.15;2.08;;;;;;;27.69;31.59;99573.22;4952672;28;20058;-85
2022/09/28 11:06:30;;;;;;;50.42;3.90;;;;;;;27.89;31.55;99603.78;4953861;29;20101;-86
2022/09/28 11:08:59;;;;;;;9.18;3.53;;;;;;;27.88;31.20;99610.44;4954131;28;20027;-84
2022/09/28 11:11:25;;;;;;;11.32;2.20;;;;;;;27.93;31.39;99599.41;4935730;29;20054;-86
2022/09/28 11:14:02;;;;;;;7.88;2.85;;;;;;;28.00;30.80;99593.69;4965205;28;20031;-84
2022/09/28 11:16:27;;;;;;;17.77;2.03;;;;;;;27.90;30.33;99572.31;4976679;28;20086;-85
2022/09/28 11:18:54;;;;;;;9.98;2.20;;;;;;;28.07;30.83;99588.81;4975585;28;20043;-84
2022/09/28 11:21:30;;;;;;;30.77;2.97;;;;;;;27.89;29.69;99545.75;4948127;29;20055;-85
2022/09/28 11:24:16;;;;;;;13.13;3.22;;;;;;;28.24;29.98;99585.88;4955700;28;20074;-86
2022/09/28 11:26:45;;;;;;;10.32;1.83;;;;;;;28.28;29.63;99584.25;4955727;28;20098;-84
2022/09/28 11:29:42;;;;;;;4.65;1.48;;;;;;;28.21;28.94;99544.91;4955802;28;20027;-86
2022/09/28 11:32:09;;;;;;;12.27;1.27;;;;;;;28.37;29.64;99564.13;4955385;28;20043;-85
2022/09/28 11:34:46;;;;;;;11.80;1.45;;;;;;;28.61;29.58;99589.44;4955494;28;20031;-85
2022/09/28 11:37:49;;;;;;;10.15;2.30;;;;;;;28.77;30.03;99585.72;4955317;28;20487;-86
2022/09/28 11:40:58;;;;;;;10.93;2.05;;;;;;;28.85;29.26;99567.75;4955778;28;20041;-83
2022/09/28 11:43:26;;;;;;;13.65;2.53;;;;;;;29.01;29.87;99575.84;4955469;28;20089;-84
2022/09/28 11:46:06;;;;;;;9.15;1.90;;;;;;;29.07;29.32;99582.25;4955497;28;20046;-85
2022/09/28 11:48:47;;;;;;;59.47;5.10;;;;;;;29.11;28.91;99569.53;4955291;28;20538;-86
2022/09/28 11:51:21;;;;;;;21.13;2.78;;;;;;;29.09;29.05;99557.88;4938754;29;20031;-85
2022/09/28 11:53:53;;;;;;;115.00;9.77;;;;;;;29.14;28.85;99578.09;4944268;28;20515;-86
2022/09/28 11:56:37;;;;;;;14.10;1.83;;;;;;;29.16;28.56;99577.84;4966861;28;20028;-89